sensor_id;sensor_type;location;lat;lon;timestamp;P1;durP1;ratioP1;P2;durP2;ratioP2
63801;SDS011;49949;43.060;25.624;2023-10-19T00:00:47;18.75;;;8.55;;
63801;SDS011;49949;43.060;25.624;2023-10-19T00:03:18;21.92;;;8.85;;
63801;SDS011;49949;43.060;25.624;2023-10-19T00:05:44;19.08;;;9.05;;
63801;SDS011;49949;43.060;25.624;2023-10-19T00:08:12;17.88;;;8.88;;
63801;SDS011;49949;43.060;25.624;2023-10-19T00:10:38;25.58;;;10.20;;
63801;SDS011;49949;43.060;25.624;2023-10-19T00:13:07;19.65;;;10.30;;
63801;SDS011;49949;43.060;25.624;2023-10-19T00:15:34;18.92;;;9.65;;
63801;SDS011;49949;43.060;25.624;2023-10-19T00:18:06;23.48;;;9.32;;
63801;SDS011;49949;43.060;25.624;2023-10-19T00:20:41;17.67;;;8.18;;
63801;SDS011;49949;43.060;25.624;2023-10-19T00:23:24;22.42;;;8.27;;
63801;SDS011;49949;43.060;25.624;2023-10-19T00:26:00;17.58;;;8.68;;
63801;SDS011;49949;43.060;25.624;2023-10-19T00:28:33;18.25;;;8.25;;
63801;SDS011;49949;43.060;25.624;2023-10-19T00:31:04;19.48;;;7.90;;
63801;SDS011;49949;43.060;25.624;2023-10-19T00:33:36;15.68;;;8.23;;
63801;SDS011;49949;43.060;25.624;2023-10-19T00:36:08;17.65;;;7.38;;
63801;SDS011;49949;43.060;25.624;2023-10-19T00:38:38;17.50;;;7.57;;
63801;SDS011;49949;43.060;25.624;2023-10-19T00:41:08;15.75;;;7.35;;
63801;SDS011;49949;43.060;25.624;2023-10-19T00:43:35;12.98;;;6.85;;
63801;SDS011;49949;43.060;25.624;2023-10-19T00:46:20;13.98;;;7.65;;
63801;SDS011;49949;43.060;25.624;2023-10-19T00:48:55;15.70;;;7.30;;
63801;SDS011;49949;43.060;25.624;2023-10-19T00:51:31;15.02;;;7.70;;
63801;SDS011;49949;43.060;25.624;2023-10-19T00:54:05;19.83;;;9.15;;
63801;SDS011;49949;43.060;25.624;2023-10-19T00:56:45;12.38;;;8.25;;
63801;SDS011;49949;43.060;25.624;2023-10-19T00:59:17;15.25;;;8.45;;
63801;SDS011;49949;43.060;25.624;2023-10-19T01:01:53;22.17;;;8.45;;
63801;SDS011;49949;43.060;25.624;2023-10-19T01:04:21;12.43;;;7.18;;
63801;SDS011;49949;43.060;25.624;2023-10-19T01:06:48;17.35;;;8.18;;
63801;SDS011;49949;43.060;25.624;2023-10-19T01:09:32;15.25;;;8.70;;
63801;SDS011;49949;43.060;25.624;2023-10-19T01:12:02;13.90;;;7.82;;
63801;SDS011;49949;43.060;25.624;2023-10-19T01:14:46;21.15;;;8.30;;
63801;SDS011;49949;43.060;25.624;2023-10-19T01:17:57;22.25;;;8.43;;
63801;SDS011;49949;43.060;25.624;2023-10-19T01:20:24;14.68;;;8.18;;
63801;SDS011;49949;43.060;25.624;2023-10-19T01:22:58;16.33;;;8.55;;
63801;SDS011;49949;43.060;25.624;2023-10-19T01:25:50;16.25;;;8.57;;
63801;SDS011;49949;43.060;25.624;2023-10-19T01:28:24;14.35;;;8.68;;
63801;SDS011;49949;43.060;25.624;2023-10-19T01:31:05;16.30;;;7.95;;
63801;SDS011;49949;43.060;25.624;2023-10-19T01:33:32;17.15;;;7.43;;
63801;SDS011;49949;43.060;25.624;2023-10-19T01:35:59;22.48;;;8.80;;
63801;SDS011;49949;43.060;25.624;2023-10-19T01:38:39;12.27;;;7.22;;
63801;SDS011;49949;43.060;25.624;2023-10-19T01:41:06;19.58;;;8.93;;
63801;SDS011;49949;43.060;25.624;2023-10-19T01:43:39;14.40;;;8.27;;
63801;SDS011;49949;43.060;25.624;2023-10-19T01:46:07;12.52;;;7.63;;
63801;SDS011;49949;43.060;25.624;2023-10-19T01:48:47;15.02;;;8.90;;
63801;SDS011;49949;43.060;25.624;2023-10-19T01:51:20;16.45;;;8.55;;
63801;SDS011;49949;43.060;25.624;2023-10-19T01:53:48;14.25;;;7.97;;
63801;SDS011;49949;43.060;25.624;2023-10-19T01:56:14;20.55;;;8.38;;
63801;SDS011;49949;43.060;25.624;2023-10-19T01:58:42;19.73;;;9.02;;
63801;SDS011;49949;43.060;25.624;2023-10-19T02:01:11;19.77;;;9.15;;
63801;SDS011;49949;43.060;25.624;2023-10-19T02:03:38;21.60;;;9.38;;
63801;SDS011;49949;43.060;25.624;2023-10-19T02:06:08;18.10;;;8.82;;
63801;SDS011;49949;43.060;25.624;2023-10-19T02:08:55;16.70;;;9.57;;
63801;SDS011;49949;43.060;25.624;2023-10-19T02:11:27;20.70;;;9.50;;
63801;SDS011;49949;43.060;25.624;2023-10-19T02:13:54;16.23;;;8.88;;
63801;SDS011;49949;43.060;25.624;2023-10-19T02:16:24;18.87;;;9.60;;
63801;SDS011;49949;43.060;25.624;2023-10-19T02:18:51;19.58;;;8.52;;
63801;SDS011;49949;43.060;25.624;2023-10-19T02:21:17;19.27;;;9.05;;
63801;SDS011;49949;43.060;25.624;2023-10-19T02:23:55;16.55;;;9.13;;
63801;SDS011;49949;43.060;25.624;2023-10-19T02:26:22;22.25;;;11.63;;
63801;SDS011;49949;43.060;25.624;2023-10-19T02:28:51;20.40;;;11.07;;
63801;SDS011;49949;43.060;25.624;2023-10-19T02:31:17;24.17;;;11.93;;
63801;SDS011;49949;43.060;25.624;2023-10-19T02:33:48;22.98;;;12.25;;
63801;SDS011;49949;43.060;25.624;2023-10-19T02:36:23;42.70;;;14.40;;
63801;SDS011;49949;43.060;25.624;2023-10-19T02:38:53;28.73;;;11.55;;
63801;SDS011;49949;43.060;25.624;2023-10-19T02:41:20;25.20;;;10.85;;
63801;SDS011;49949;43.060;25.624;2023-10-19T02:43:46;32.70;;;14.10;;
63801;SDS011;49949;43.060;25.624;2023-10-19T02:46:16;30.58;;;15.48;;
63801;SDS011;49949;43.060;25.624;2023-10-19T02:48:45;34.47;;;15.98;;
63801;SDS011;49949;43.060;25.624;2023-10-19T02:51:12;46.25;;;18.25;;
63801;SDS011;49949;43.060;25.624;2023-10-19T02:53:41;34.55;;;17.15;;
63801;SDS011;49949;43.060;25.624;2023-10-19T02:56:14;55.45;;;22.60;;
63801;SDS011;49949;43.060;25.624;2023-10-19T02:58:49;48.93;;;22.67;;
63801;SDS011;49949;43.060;25.624;2023-10-19T03:01:15;100.75;;;24.48;;
63801;SDS011;49949;43.060;25.624;2023-10-19T03:03:46;41.63;;;19.60;;
63801;SDS011;49949;43.060;25.624;2023-10-19T03:06:14;41.95;;;20.02;;
63801;SDS011;49949;43.060;25.624;2023-10-19T03:08:45;35.97;;;18.15;;
63801;SDS011;49949;43.060;25.624;2023-10-19T03:11:11;38.47;;;15.18;;
63801;SDS011;49949;43.060;25.624;2023-10-19T03:13:39;34.38;;;15.45;;
63801;SDS011;49949;43.060;25.624;2023-10-19T03:16:06;29.08;;;15.18;;
63801;SDS011;49949;43.060;25.624;2023-10-19T03:18:33;29.50;;;14.02;;
63801;SDS011;49949;43.060;25.624;2023-10-19T03:21:00;38.63;;;14.18;;
63801;SDS011;49949;43.060;25.624;2023-10-19T03:23:29;23.98;;;12.88;;
63801;SDS011;49949;43.060;25.624;2023-10-19T03:25:59;28.73;;;12.70;;
63801;SDS011;49949;43.060;25.624;2023-10-19T03:28:48;28.40;;;13.43;;
63801;SDS011;49949;43.060;25.624;2023-10-19T03:31:20;42.75;;;19.15;;
63801;SDS011;49949;43.060;25.624;2023-10-19T03:33:52;41.05;;;20.27;;
63801;SDS011;49949;43.060;25.624;2023-10-19T03:36:22;34.72;;;15.98;;
63801;SDS011;49949;43.060;25.624;2023-10-19T03:38:49;40.13;;;19.42;;
63801;SDS011;49949;43.060;25.624;2023-10-19T03:41:17;50.72;;;22.77;;
63801;SDS011;49949;43.060;25.624;2023-10-19T03:43:47;38.03;;;18.35;;
63801;SDS011;49949;43.060;25.624;2023-10-19T03:46:13;47.15;;;19.55;;
63801;SDS011;49949;43.060;25.624;2023-10-19T03:48:47;37.38;;;18.83;;
63801;SDS011;49949;43.060;25.624;2023-10-19T03:51:13;37.78;;;19.60;;
63801;SDS011;49949;43.060;25.624;2023-10-19T03:53:40;53.13;;;20.45;;
63801;SDS011;49949;43.060;25.624;2023-10-19T03:56:12;46.88;;;20.27;;
63801;SDS011;49949;43.060;25.624;2023-10-19T03:58:37;39.42;;;16.33;;
63801;SDS011;49949;43.060;25.624;2023-10-19T04:01:05;45.13;;;18.92;;
63801;SDS011;49949;43.060;25.624;2023-10-19T04:03:32;43.28;;;20.33;;
63801;SDS011;49949;43.060;25.624;2023-10-19T04:05:59;45.25;;;18.13;;
63801;SDS011;49949;43.060;25.624;2023-10-19T04:08:26;49.28;;;19.52;;
63801;SDS011;49949;43.060;25.624;2023-10-19T04:10:52;42.75;;;18.42;;
63801;SDS011;49949;43.060;25.624;2023-10-19T04:13:34;40.55;;;19.35;;
63801;SDS011;49949;43.060;25.624;2023-10-19T04:16:01;46.95;;;19.45;;
63801;SDS011;49949;43.060;25.624;2023-10-19T04:18:28;46.53;;;18.30;;
63801;SDS011;49949;43.060;25.624;2023-10-19T04:20:54;38.88;;;17.17;;
63801;SDS011;49949;43.060;25.624;2023-10-19T04:23:20;34.33;;;16.10;;
63801;SDS011;49949;43.060;25.624;2023-10-19T04:25:47;30.48;;;14.52;;
63801;SDS011;49949;43.060;25.624;2023-10-19T04:28:13;33.13;;;16.65;;
63801;SDS011;49949;43.060;25.624;2023-10-19T04:30:39;52.17;;;18.88;;
63801;SDS011;49949;43.060;25.624;2023-10-19T04:33:05;28.95;;;12.57;;
63801;SDS011;49949;43.060;25.624;2023-10-19T04:35:35;36.55;;;13.35;;
63801;SDS011;49949;43.060;25.624;2023-10-19T04:38:03;31.73;;;14.65;;
63801;SDS011;49949;43.060;25.624;2023-10-19T04:40:32;56.72;;;20.63;;
63801;SDS011;49949;43.060;25.624;2023-10-19T04:42:58;52.00;;;19.95;;
63801;SDS011;49949;43.060;25.624;2023-10-19T04:45:28;49.80;;;20.38;;
63801;SDS011;49949;43.060;25.624;2023-10-19T04:47:54;53.47;;;21.80;;
63801;SDS011;49949;43.060;25.624;2023-10-19T04:50:20;65.38;;;21.92;;
63801;SDS011;49949;43.060;25.624;2023-10-19T04:52:47;72.65;;;21.05;;
63801;SDS011;49949;43.060;25.624;2023-10-19T04:55:12;57.83;;;20.02;;
63801;SDS011;49949;43.060;25.624;2023-10-19T04:57:38;60.35;;;17.45;;
63801;SDS011;49949;43.060;25.624;2023-10-19T05:00:04;39.08;;;14.90;;
63801;SDS011;49949;43.060;25.624;2023-10-19T05:02:30;66.65;;;22.05;;
63801;SDS011;49949;43.060;25.624;2023-10-19T05:04:56;56.50;;;22.17;;
63801;SDS011;49949;43.060;25.624;2023-10-19T05:07:22;67.85;;;20.55;;
63801;SDS011;49949;43.060;25.624;2023-10-19T05:09:47;73.05;;;21.15;;
63801;SDS011;49949;43.060;25.624;2023-10-19T05:12:14;66.93;;;20.73;;
63801;SDS011;49949;43.060;25.624;2023-10-19T05:14:40;51.90;;;19.23;;
63801;SDS011;49949;43.060;25.624;2023-10-19T05:17:08;72.45;;;20.20;;
63801;SDS011;49949;43.060;25.624;2023-10-19T05:19:35;62.88;;;21.42;;
63801;SDS011;49949;43.060;25.624;2023-10-19T05:22:02;90.78;;;24.00;;
63801;SDS011;49949;43.060;25.624;2023-10-19T05:24:29;58.40;;;20.15;;
63801;SDS011;49949;43.060;25.624;2023-10-19T05:26:55;64.97;;;20.70;;
63801;SDS011;49949;43.060;25.624;2023-10-19T05:29:21;63.53;;;20.25;;
63801;SDS011;49949;43.060;25.624;2023-10-19T05:31:47;49.80;;;20.58;;
63801;SDS011;49949;43.060;25.624;2023-10-19T05:34:18;56.75;;;23.10;;
63801;SDS011;49949;43.060;25.624;2023-10-19T05:36:47;57.40;;;21.10;;
63801;SDS011;49949;43.060;25.624;2023-10-19T05:39:16;55.03;;;20.27;;
63801;SDS011;49949;43.060;25.624;2023-10-19T05:41:43;83.53;;;22.23;;
63801;SDS011;49949;43.060;25.624;2023-10-19T05:44:09;50.58;;;19.27;;
63801;SDS011;49949;43.060;25.624;2023-10-19T05:46:35;55.15;;;20.55;;
63801;SDS011;49949;43.060;25.624;2023-10-19T05:49:01;56.47;;;20.75;;
63801;SDS011;49949;43.060;25.624;2023-10-19T05:51:29;58.70;;;18.98;;
63801;SDS011;49949;43.060;25.624;2023-10-19T05:53:55;73.15;;;20.75;;
63801;SDS011;49949;43.060;25.624;2023-10-19T05:56:27;71.07;;;22.48;;
63801;SDS011;49949;43.060;25.624;2023-10-19T05:58:53;63.33;;;23.88;;
63801;SDS011;49949;43.060;25.624;2023-10-19T06:01:19;78.68;;;23.30;;
63801;SDS011;49949;43.060;25.624;2023-10-19T06:03:45;62.17;;;24.08;;
63801;SDS011;49949;43.060;25.624;2023-10-19T06:06:11;106.38;;;30.08;;
63801;SDS011;49949;43.060;25.624;2023-10-19T06:08:37;83.82;;;29.35;;
63801;SDS011;49949;43.060;25.624;2023-10-19T06:11:05;101.30;;;30.95;;
63801;SDS011;49949;43.060;25.624;2023-10-19T06:13:31;111.00;;;31.48;;
63801;SDS011;49949;43.060;25.624;2023-10-19T06:15:57;111.00;;;30.13;;
63801;SDS011;49949;43.060;25.624;2023-10-19T06:18:23;134.90;;;33.83;;
63801;SDS011;49949;43.060;25.624;2023-10-19T06:20:48;153.63;;;38.25;;
63801;SDS011;49949;43.060;25.624;2023-10-19T06:23:16;136.70;;;36.08;;
63801;SDS011;49949;43.060;25.624;2023-10-19T06:25:43;125.90;;;33.53;;
63801;SDS011;49949;43.060;25.624;2023-10-19T06:28:08;141.05;;;37.40;;
63801;SDS011;49949;43.060;25.624;2023-10-19T06:30:36;141.88;;;37.55;;
63801;SDS011;49949;43.060;25.624;2023-10-19T06:33:01;191.60;;;51.90;;
63801;SDS011;49949;43.060;25.624;2023-10-19T06:35:28;182.52;;;53.20;;
63801;SDS011;49949;43.060;25.624;2023-10-19T06:37:56;150.75;;;47.65;;
63801;SDS011;49949;43.060;25.624;2023-10-19T06:40:24;172.55;;;46.50;;
63801;SDS011;49949;43.060;25.624;2023-10-19T06:42:51;156.20;;;50.55;;
63801;SDS011;49949;43.060;25.624;2023-10-19T06:45:21;194.48;;;57.40;;
63801;SDS011;49949;43.060;25.624;2023-10-19T06:47:48;155.20;;;56.42;;
63801;SDS011;49949;43.060;25.624;2023-10-19T06:50:23;174.80;;;59.90;;
63801;SDS011;49949;43.060;25.624;2023-10-19T06:52:51;187.25;;;60.88;;
63801;SDS011;49949;43.060;25.624;2023-10-19T06:55:17;207.60;;;64.22;;
63801;SDS011;49949;43.060;25.624;2023-10-19T06:57:47;200.13;;;64.78;;
63801;SDS011;49949;43.060;25.624;2023-10-19T07:00:18;213.05;;;78.40;;
63801;SDS011;49949;43.060;25.624;2023-10-19T07:02:46;177.82;;;69.80;;
63801;SDS011;49949;43.060;25.624;2023-10-19T07:05:13;175.13;;;57.88;;
63801;SDS011;49949;43.060;25.624;2023-10-19T07:07:43;171.90;;;59.40;;
63801;SDS011;49949;43.060;25.624;2023-10-19T07:10:11;163.75;;;62.33;;
63801;SDS011;49949;43.060;25.624;2023-10-19T07:12:38;172.35;;;59.20;;
63801;SDS011;49949;43.060;25.624;2023-10-19T07:15:09;161.00;;;61.53;;
63801;SDS011;49949;43.060;25.624;2023-10-19T07:17:45;145.23;;;59.85;;
63801;SDS011;49949;43.060;25.624;2023-10-19T07:20:13;112.68;;;48.33;;
63801;SDS011;49949;43.060;25.624;2023-10-19T07:23:01;115.30;;;46.67;;
63801;SDS011;49949;43.060;25.624;2023-10-19T07:25:44;104.82;;;47.72;;
63801;SDS011;49949;43.060;25.624;2023-10-19T07:28:12;63.47;;;27.58;;
63801;SDS011;49949;43.060;25.624;2023-10-19T07:30:39;32.28;;;18.65;;
63801;SDS011;49949;43.060;25.624;2023-10-19T07:33:07;13.35;;;8.82;;
63801;SDS011;49949;43.060;25.624;2023-10-19T07:35:38;39.63;;;5.82;;
63801;SDS011;49949;43.060;25.624;2023-10-19T07:38:04;17.23;;;7.55;;
63801;SDS011;49949;43.060;25.624;2023-10-19T07:40:32;9.48;;;5.57;;
63801;SDS011;49949;43.060;25.624;2023-10-19T07:43:01;8.52;;;4.85;;
63801;SDS011;49949;43.060;25.624;2023-10-19T07:45:28;7.78;;;5.45;;
63801;SDS011;49949;43.060;25.624;2023-10-19T07:47:56;21.10;;;4.70;;
63801;SDS011;49949;43.060;25.624;2023-10-19T07:50:22;10.93;;;4.40;;
63801;SDS011;49949;43.060;25.624;2023-10-19T07:52:52;9.05;;;4.65;;
63801;SDS011;49949;43.060;25.624;2023-10-19T07:55:20;5.10;;;4.55;;
63801;SDS011;49949;43.060;25.624;2023-10-19T07:57:51;10.82;;;4.75;;
63801;SDS011;49949;43.060;25.624;2023-10-19T08:00:18;5.50;;;3.85;;
63801;SDS011;49949;43.060;25.624;2023-10-19T08:02:44;6.40;;;3.92;;
63801;SDS011;49949;43.060;25.624;2023-10-19T08:05:11;7.50;;;3.88;;
63801;SDS011;49949;43.060;25.624;2023-10-19T08:07:37;5.43;;;3.75;;
63801;SDS011;49949;43.060;25.624;2023-10-19T08:10:13;8.57;;;3.88;;
63801;SDS011;49949;43.060;25.624;2023-10-19T08:12:40;10.18;;;3.83;;
63801;SDS011;49949;43.060;25.624;2023-10-19T08:15:08;5.40;;;3.78;;
63801;SDS011;49949;43.060;25.624;2023-10-19T08:17:38;4.03;;;3.13;;
63801;SDS011;49949;43.060;25.624;2023-10-19T08:20:06;3.92;;;3.50;;
63801;SDS011;49949;43.060;25.624;2023-10-19T08:22:41;7.78;;;3.40;;
63801;SDS011;49949;43.060;25.624;2023-10-19T08:25:07;6.43;;;3.80;;
63801;SDS011;49949;43.060;25.624;2023-10-19T08:27:43;7.00;;;3.38;;
63801;SDS011;49949;43.060;25.624;2023-10-19T08:30:13;4.95;;;3.10;;
63801;SDS011;49949;43.060;25.624;2023-10-19T08:32:40;3.85;;;2.80;;
63801;SDS011;49949;43.060;25.624;2023-10-19T08:35:07;51.65;;;5.35;;
63801;SDS011;49949;43.060;25.624;2023-10-19T08:37:36;3.78;;;2.50;;
63801;SDS011;49949;43.060;25.624;2023-10-19T08:40:06;11.80;;;3.20;;
63801;SDS011;49949;43.060;25.624;2023-10-19T08:42:39;4.80;;;3.00;;
63801;SDS011;49949;43.060;25.624;2023-10-19T08:45:06;4.53;;;2.63;;
63801;SDS011;49949;43.060;25.624;2023-10-19T08:47:34;3.05;;;2.70;;
63801;SDS011;49949;43.060;25.624;2023-10-19T08:50:02;4.50;;;2.72;;
63801;SDS011;49949;43.060;25.624;2023-10-19T08:52:30;7.32;;;3.10;;
63801;SDS011;49949;43.060;25.624;2023-10-19T08:54:57;5.68;;;3.17;;
63801;SDS011;49949;43.060;25.624;2023-10-19T08:57:23;16.88;;;2.55;;
63801;SDS011;49949;43.060;25.624;2023-10-19T08:59:49;5.35;;;2.30;;
63801;SDS011;49949;43.060;25.624;2023-10-19T09:02:14;3.72;;;2.45;;
63801;SDS011;49949;43.060;25.624;2023-10-19T09:04:47;3.72;;;2.60;;
63801;SDS011;49949;43.060;25.624;2023-10-19T09:07:13;5.43;;;2.58;;
63801;SDS011;49949;43.060;25.624;2023-10-19T09:09:41;2.88;;;2.40;;
63801;SDS011;49949;43.060;25.624;2023-10-19T09:12:07;8.70;;;2.92;;
63801;SDS011;49949;43.060;25.624;2023-10-19T09:14:34;5.47;;;2.35;;
63801;SDS011;49949;43.060;25.624;2023-10-19T09:17:11;9.18;;;2.42;;
63801;SDS011;49949;43.060;25.624;2023-10-19T09:19:42;5.43;;;2.85;;
63801;SDS011;49949;43.060;25.624;2023-10-19T09:22:09;3.13;;;2.57;;
63801;SDS011;49949;43.060;25.624;2023-10-19T09:24:50;5.90;;;2.53;;
63801;SDS011;49949;43.060;25.624;2023-10-19T09:27:21;7.03;;;2.60;;
63801;SDS011;49949;43.060;25.624;2023-10-19T09:29:48;6.72;;;2.42;;
63801;SDS011;49949;43.060;25.624;2023-10-19T09:32:16;4.40;;;2.33;;
63801;SDS011;49949;43.060;25.624;2023-10-19T09:34:42;6.30;;;2.25;;
63801;SDS011;49949;43.060;25.624;2023-10-19T09:37:10;4.60;;;1.67;;
63801;SDS011;49949;43.060;25.624;2023-10-19T09:39:38;17.92;;;2.25;;
63801;SDS011;49949;43.060;25.624;2023-10-19T09:42:09;7.70;;;2.00;;
63801;SDS011;49949;43.060;25.624;2023-10-19T09:44:45;3.60;;;1.80;;
63801;SDS011;49949;43.060;25.624;2023-10-19T09:47:35;2.15;;;1.92;;
63801;SDS011;49949;43.060;25.624;2023-10-19T09:50:04;2.45;;;1.83;;
63801;SDS011;49949;43.060;25.624;2023-10-19T09:52:32;1.63;;;1.52;;
63801;SDS011;49949;43.060;25.624;2023-10-19T09:57:37;1.75;;;1.52;;
63801;SDS011;49949;43.060;25.624;2023-10-19T10:00:12;14.02;;;2.42;;
63801;SDS011;49949;43.060;25.624;2023-10-19T10:02:38;6.20;;;2.00;;
63801;SDS011;49949;43.060;25.624;2023-10-19T10:10:46;3.22;;;1.40;;
63801;SDS011;49949;43.060;25.624;2023-10-19T10:15:54;9.18;;;1.33;;
63801;SDS011;49949;43.060;25.624;2023-10-19T10:18:20;5.93;;;1.83;;
63801;SDS011;49949;43.060;25.624;2023-10-19T10:21:01;6.63;;;1.52;;
63801;SDS011;49949;43.060;25.624;2023-10-19T10:23:41;4.38;;;1.23;;
63801;SDS011;49949;43.060;25.624;2023-10-19T10:26:09;6.57;;;1.50;;
63801;SDS011;49949;43.060;25.624;2023-10-19T10:28:39;2.55;;;1.20;;
63801;SDS011;49949;43.060;25.624;2023-10-19T10:31:14;12.50;;;1.65;;
63801;SDS011;49949;43.060;25.624;2023-10-19T10:36:13;4.30;;;1.20;;
63801;SDS011;49949;43.060;25.624;2023-10-19T10:38:42;7.72;;;1.63;;
63801;SDS011;49949;43.060;25.624;2023-10-19T10:41:08;12.27;;;1.52;;
63801;SDS011;49949;43.060;25.624;2023-10-19T10:43:50;1.73;;;1.00;;
63801;SDS011;49949;43.060;25.624;2023-10-19T10:46:18;2.85;;;1.50;;
63801;SDS011;49949;43.060;25.624;2023-10-19T10:48:45;1.70;;;1.40;;
63801;SDS011;49949;43.060;25.624;2023-10-19T10:51:17;1.92;;;1.75;;
63801;SDS011;49949;43.060;25.624;2023-10-19T10:53:48;1.67;;;1.50;;
63801;SDS011;49949;43.060;25.624;2023-10-19T10:56:16;8.45;;;1.65;;
63801;SDS011;49949;43.060;25.624;2023-10-19T10:58:42;48.80;;;2.78;;
63801;SDS011;49949;43.060;25.624;2023-10-19T11:01:08;5.50;;;1.90;;
63801;SDS011;49949;43.060;25.624;2023-10-19T11:03:35;3.85;;;1.63;;
63801;SDS011;49949;43.060;25.624;2023-10-19T11:06:05;25.35;;;3.08;;
63801;SDS011;49949;43.060;25.624;2023-10-19T11:08:35;3.20;;;1.70;;
63801;SDS011;49949;43.060;25.624;2023-10-19T11:11:05;9.10;;;2.28;;
63801;SDS011;49949;43.060;25.624;2023-10-19T11:13:35;7.80;;;1.75;;
63801;SDS011;49949;43.060;25.624;2023-10-19T11:16:03;1.50;;;1.40;;
63801;SDS011;49949;43.060;25.624;2023-10-19T11:18:34;4.72;;;1.85;;
63801;SDS011;49949;43.060;25.624;2023-10-19T11:21:01;6.03;;;2.00;;
63801;SDS011;49949;43.060;25.624;2023-10-19T11:23:45;13.18;;;2.05;;
63801;SDS011;49949;43.060;25.624;2023-10-19T11:26:18;1.52;;;1.42;;
63801;SDS011;49949;43.060;25.624;2023-10-19T11:28:45;19.77;;;1.92;;
63801;SDS011;49949;43.060;25.624;2023-10-19T11:33:45;8.13;;;2.00;;
63801;SDS011;49949;43.060;25.624;2023-10-19T11:36:13;4.30;;;1.67;;
63801;SDS011;49949;43.060;25.624;2023-10-19T11:38:40;3.22;;;1.42;;
63801;SDS011;49949;43.060;25.624;2023-10-19T11:41:07;2.45;;;1.77;;
63801;SDS011;49949;43.060;25.624;2023-10-19T11:43:34;1.88;;;1.40;;
63801;SDS011;49949;43.060;25.624;2023-10-19T11:46:00;1.00;;;0.77;;
63801;SDS011;49949;43.060;25.624;2023-10-19T11:48:29;2.72;;;1.65;;
63801;SDS011;49949;43.060;25.624;2023-10-19T11:50:56;2.00;;;1.80;;
63801;SDS011;49949;43.060;25.624;2023-10-19T11:53:22;2.15;;;1.00;;
63801;SDS011;49949;43.060;25.624;2023-10-19T11:55:48;2.42;;;1.83;;
63801;SDS011;49949;43.060;25.624;2023-10-19T11:58:14;11.00;;;2.30;;
63801;SDS011;49949;43.060;25.624;2023-10-19T12:00:40;3.72;;;2.20;;
63801;SDS011;49949;43.060;25.624;2023-10-19T12:03:09;3.50;;;1.80;;
63801;SDS011;49949;43.060;25.624;2023-10-19T12:05:35;6.43;;;1.50;;
63801;SDS011;49949;43.060;25.624;2023-10-19T12:08:02;2.97;;;1.60;;
63801;SDS011;49949;43.060;25.624;2023-10-19T12:10:28;1.98;;;1.83;;
63801;SDS011;49949;43.060;25.624;2023-10-19T12:13:06;5.18;;;2.72;;
63801;SDS011;49949;43.060;25.624;2023-10-19T12:15:33;3.03;;;1.60;;
63801;SDS011;49949;43.060;25.624;2023-10-19T12:17:59;2.28;;;1.38;;
63801;SDS011;49949;43.060;25.624;2023-10-19T12:20:26;2.00;;;1.80;;
63801;SDS011;49949;43.060;25.624;2023-10-19T12:22:52;4.18;;;1.48;;
63801;SDS011;49949;43.060;25.624;2023-10-19T12:25:21;2.53;;;1.83;;
63801;SDS011;49949;43.060;25.624;2023-10-19T12:27:54;1.90;;;1.60;;
63801;SDS011;49949;43.060;25.624;2023-10-19T12:30:20;1.67;;;1.58;;
63801;SDS011;49949;43.060;25.624;2023-10-19T12:32:47;4.28;;;1.67;;
63801;SDS011;49949;43.060;25.624;2023-10-19T12:35:16;4.20;;;1.60;;
63801;SDS011;49949;43.060;25.624;2023-10-19T12:37:45;2.53;;;1.58;;
63801;SDS011;49949;43.060;25.624;2023-10-19T12:40:14;4.97;;;1.70;;
63801;SDS011;49949;43.060;25.624;2023-10-19T12:42:53;2.75;;;1.90;;
63801;SDS011;49949;43.060;25.624;2023-10-19T12:45:22;4.85;;;1.75;;
63801;SDS011;49949;43.060;25.624;2023-10-19T12:47:51;2.63;;;1.90;;
63801;SDS011;49949;43.060;25.624;2023-10-19T12:50:20;3.90;;;1.40;;
63801;SDS011;49949;43.060;25.624;2023-10-19T12:52:50;2.33;;;1.73;;
63801;SDS011;49949;43.060;25.624;2023-10-19T12:55:16;6.80;;;2.10;;
63801;SDS011;49949;43.060;25.624;2023-10-19T12:57:44;6.15;;;1.90;;
63801;SDS011;49949;43.060;25.624;2023-10-19T13:00:09;4.07;;;2.00;;
63801;SDS011;49949;43.060;25.624;2023-10-19T13:02:57;1.70;;;1.48;;
63801;SDS011;49949;43.060;25.624;2023-10-19T13:05:47;3.20;;;2.00;;
63801;SDS011;49949;43.060;25.624;2023-10-19T13:08:12;4.32;;;1.95;;
63801;SDS011;49949;43.060;25.624;2023-10-19T13:10:44;2.03;;;1.70;;
63801;SDS011;49949;43.060;25.624;2023-10-19T13:13:13;7.07;;;2.60;;
63801;SDS011;49949;43.060;25.624;2023-10-19T13:15:41;5.85;;;2.08;;
63801;SDS011;49949;43.060;25.624;2023-10-19T13:18:11;4.10;;;2.00;;
63801;SDS011;49949;43.060;25.624;2023-10-19T13:20:47;2.05;;;1.80;;
63801;SDS011;49949;43.060;25.624;2023-10-19T13:23:13;3.13;;;1.90;;
63801;SDS011;49949;43.060;25.624;2023-10-19T13:25:46;4.00;;;2.10;;
63801;SDS011;49949;43.060;25.624;2023-10-19T13:33:13;3.78;;;1.98;;
63801;SDS011;49949;43.060;25.624;2023-10-19T13:35:43;2.90;;;1.80;;
63801;SDS011;49949;43.060;25.624;2023-10-19T13:38:10;1.92;;;1.70;;
63801;SDS011;49949;43.060;25.624;2023-10-19T13:40:40;3.22;;;2.13;;
63801;SDS011;49949;43.060;25.624;2023-10-19T13:43:07;3.40;;;2.08;;
63801;SDS011;49949;43.060;25.624;2023-10-19T13:45:34;2.63;;;1.92;;
63801;SDS011;49949;43.060;25.624;2023-10-19T13:48:02;4.82;;;2.10;;
63801;SDS011;49949;43.060;25.624;2023-10-19T13:50:28;4.03;;;2.05;;
63801;SDS011;49949;43.060;25.624;2023-10-19T13:52:58;10.93;;;1.73;;
63801;SDS011;49949;43.060;25.624;2023-10-19T13:55:28;5.78;;;2.20;;
63801;SDS011;49949;43.060;25.624;2023-10-19T13:57:55;3.58;;;1.98;;
63801;SDS011;49949;43.060;25.624;2023-10-19T14:00:21;6.03;;;2.10;;
63801;SDS011;49949;43.060;25.624;2023-10-19T14:03:00;4.45;;;2.25;;
63801;SDS011;49949;43.060;25.624;2023-10-19T14:05:26;6.68;;;2.00;;
63801;SDS011;49949;43.060;25.624;2023-10-19T14:07:54;7.70;;;3.00;;
63801;SDS011;49949;43.060;25.624;2023-10-19T14:10:20;4.05;;;2.22;;
63801;SDS011;49949;43.060;25.624;2023-10-19T14:12:46;2.25;;;1.67;;
63801;SDS011;49949;43.060;25.624;2023-10-19T14:15:17;5.85;;;1.95;;
63801;SDS011;49949;43.060;25.624;2023-10-19T14:17:44;5.15;;;2.28;;
63801;SDS011;49949;43.060;25.624;2023-10-19T14:20:12;5.07;;;2.33;;
63801;SDS011;49949;43.060;25.624;2023-10-19T14:22:45;9.48;;;2.30;;
63801;SDS011;49949;43.060;25.624;2023-10-19T14:25:14;4.47;;;2.40;;
63801;SDS011;49949;43.060;25.624;2023-10-19T14:27:40;4.95;;;2.45;;
63801;SDS011;49949;43.060;25.624;2023-10-19T14:30:12;5.05;;;2.67;;
63801;SDS011;49949;43.060;25.624;2023-10-19T14:32:45;2.47;;;2.20;;
63801;SDS011;49949;43.060;25.624;2023-10-19T14:35:15;4.25;;;2.20;;
63801;SDS011;49949;43.060;25.624;2023-10-19T14:37:43;8.73;;;2.22;;
63801;SDS011;49949;43.060;25.624;2023-10-19T14:40:10;6.25;;;1.90;;
63801;SDS011;49949;43.060;25.624;2023-10-19T14:42:45;4.30;;;2.70;;
63801;SDS011;49949;43.060;25.624;2023-10-19T14:45:12;3.95;;;2.63;;
63801;SDS011;49949;43.060;25.624;2023-10-19T14:47:39;6.18;;;2.40;;
63801;SDS011;49949;43.060;25.624;2023-10-19T14:52:36;6.45;;;2.90;;
63801;SDS011;49949;43.060;25.624;2023-10-19T14:55:03;5.97;;;2.80;;
63801;SDS011;49949;43.060;25.624;2023-10-19T14:57:31;7.13;;;2.83;;